sensor_id;sensor_type;location;lat;lon;timestamp;P1;durP1;ratioP1;P2;durP2;ratioP2
912;SDS011;443;51.448;7.028;2022-12-18T00:01:57;6.57;;;5.47;;
912;SDS011;443;51.448;7.028;2022-12-18T00:04:25;7.43;;;5.90;;
912;SDS011;443;51.448;7.028;2022-12-18T00:06:53;7.50;;;4.83;;
912;SDS011;443;51.448;7.028;2022-12-18T00:09:19;6.40;;;4.27;;
912;SDS011;443;51.448;7.028;2022-12-18T00:11:47;6.50;;;5.17;;
912;SDS011;443;51.448;7.028;2022-12-18T00:14:13;7.60;;;5.87;;
912;SDS011;443;51.448;7.028;2022-12-18T00:16:44;6.97;;;4.80;;
912;SDS011;443;51.448;7.028;2022-12-18T00:19:12;7.87;;;4.40;;
912;SDS011;443;51.448;7.028;2022-12-18T00:21:39;6.17;;;5.00;;
912;SDS011;443;51.448;7.028;2022-12-18T00:24:06;7.53;;;5.07;;
912;SDS011;443;51.448;7.028;2022-12-18T00:26:34;8.10;;;3.60;;
912;SDS011;443;51.448;7.028;2022-12-18T00:29:02;6.57;;;4.53;;
912;SDS011;443;51.448;7.028;2022-12-18T00:31:32;8.53;;;5.07;;
912;SDS011;443;51.448;7.028;2022-12-18T00:34:00;7.65;;;5.03;;
912;SDS011;443;51.448;7.028;2022-12-18T00:36:28;5.37;;;3.60;;
912;SDS011;443;51.448;7.028;2022-12-18T00:38:57;5.40;;;4.50;;
912;SDS011;443;51.448;7.028;2022-12-18T00:41:25;6.23;;;4.80;;
912;SDS011;443;51.448;7.028;2022-12-18T00:44:10;6.50;;;5.00;;
912;SDS011;443;51.448;7.028;2022-12-18T00:46:38;6.30;;;4.47;;
912;SDS011;443;51.448;7.028;2022-12-18T00:49:07;5.73;;;4.53;;
912;SDS011;443;51.448;7.028;2022-12-18T00:51:33;8.17;;;4.50;;
912;SDS011;443;51.448;7.028;2022-12-18T00:54:00;5.37;;;4.27;;
912;SDS011;443;51.448;7.028;2022-12-18T00:56:27;7.23;;;4.20;;
912;SDS011;443;51.448;7.028;2022-12-18T00:58:54;7.43;;;4.57;;
912;SDS011;443;51.448;7.028;2022-12-18T01:01:21;8.63;;;4.73;;
912;SDS011;443;51.448;7.028;2022-12-18T01:03:48;7.53;;;4.70;;
912;SDS011;443;51.448;7.028;2022-12-18T01:06:16;7.43;;;4.97;;
912;SDS011;443;51.448;7.028;2022-12-18T01:08:43;5.37;;;4.37;;
912;SDS011;443;51.448;7.028;2022-12-18T01:11:11;5.35;;;4.55;;
912;SDS011;443;51.448;7.028;2022-12-18T01:13:38;5.13;;;4.07;;
912;SDS011;443;51.448;7.028;2022-12-18T01:16:06;7.23;;;4.90;;
912;SDS011;443;51.448;7.028;2022-12-18T01:18:33;6.73;;;4.83;;
912;SDS011;443;51.448;7.028;2022-12-18T01:21:04;5.13;;;4.30;;
912;SDS011;443;51.448;7.028;2022-12-18T01:23:33;4.87;;;3.60;;
912;SDS011;443;51.448;7.028;2022-12-18T01:26:03;6.80;;;5.20;;
912;SDS011;443;51.448;7.028;2022-12-18T01:28:31;7.97;;;5.03;;
912;SDS011;443;51.448;7.028;2022-12-18T01:31:04;5.63;;;4.40;;
912;SDS011;443;51.448;7.028;2022-12-18T01:33:39;7.67;;;4.03;;
912;SDS011;443;51.448;7.028;2022-12-18T01:36:05;6.17;;;4.00;;
912;SDS011;443;51.448;7.028;2022-12-18T01:38:34;6.60;;;3.90;;
912;SDS011;443;51.448;7.028;2022-12-18T01:41:01;5.90;;;4.17;;
912;SDS011;443;51.448;7.028;2022-12-18T01:43:40;3.87;;;2.70;;
912;SDS011;443;51.448;7.028;2022-12-18T01:46:11;5.95;;;4.22;;
912;SDS011;443;51.448;7.028;2022-12-18T01:48:38;3.53;;;3.23;;
912;SDS011;443;51.448;7.028;2022-12-18T01:51:07;4.77;;;3.67;;
912;SDS011;443;51.448;7.028;2022-12-18T01:53:37;5.10;;;3.27;;
912;SDS011;443;51.448;7.028;2022-12-18T01:56:06;4.23;;;3.07;;
912;SDS011;443;51.448;7.028;2022-12-18T01:58:35;5.07;;;3.73;;
912;SDS011;443;51.448;7.028;2022-12-18T02:01:07;6.57;;;3.77;;
912;SDS011;443;51.448;7.028;2022-12-18T02:03:34;7.77;;;3.70;;
912;SDS011;443;51.448;7.028;2022-12-18T02:06:03;7.60;;;4.30;;
912;SDS011;443;51.448;7.028;2022-12-18T02:08:39;5.50;;;3.87;;
912;SDS011;443;51.448;7.028;2022-12-18T02:11:10;5.20;;;3.73;;
912;SDS011;443;51.448;7.028;2022-12-18T02:13:45;5.10;;;3.40;;
912;SDS011;443;51.448;7.028;2022-12-18T02:16:21;5.60;;;3.57;;
912;SDS011;443;51.448;7.028;2022-12-18T02:18:52;4.87;;;3.60;;
912;SDS011;443;51.448;7.028;2022-12-18T02:21:25;6.50;;;3.30;;
912;SDS011;443;51.448;7.028;2022-12-18T02:24:04;4.47;;;3.40;;
912;SDS011;443;51.448;7.028;2022-12-18T02:26:43;9.95;;;5.40;;
912;SDS011;443;51.448;7.028;2022-12-18T02:29:15;5.50;;;4.63;;
912;SDS011;443;51.448;7.028;2022-12-18T02:31:45;5.47;;;4.37;;
912;SDS011;443;51.448;7.028;2022-12-18T02:34:14;6.63;;;3.77;;
912;SDS011;443;51.448;7.028;2022-12-18T02:36:44;5.22;;;3.47;;
912;SDS011;443;51.448;7.028;2022-12-18T02:39:12;5.57;;;3.93;;
912;SDS011;443;51.448;7.028;2022-12-18T02:41:42;4.03;;;3.03;;
912;SDS011;443;51.448;7.028;2022-12-18T02:44:11;8.77;;;4.50;;
912;SDS011;443;51.448;7.028;2022-12-18T02:46:39;5.83;;;4.17;;
912;SDS011;443;51.448;7.028;2022-12-18T02:49:11;4.10;;;3.20;;
912;SDS011;443;51.448;7.028;2022-12-18T02:51:47;6.40;;;4.30;;
912;SDS011;443;51.448;7.028;2022-12-18T02:54:21;5.70;;;3.38;;
912;SDS011;443;51.448;7.028;2022-12-18T02:57:00;4.60;;;3.10;;
912;SDS011;443;51.448;7.028;2022-12-18T02:59:33;3.50;;;2.80;;
912;SDS011;443;51.448;7.028;2022-12-18T03:02:07;4.83;;;4.10;;
912;SDS011;443;51.448;7.028;2022-12-18T03:04:46;3.83;;;2.80;;
912;SDS011;443;51.448;7.028;2022-12-18T03:07:18;5.53;;;3.23;;
912;SDS011;443;51.448;7.028;2022-12-18T03:09:48;3.77;;;2.73;;
912;SDS011;443;51.448;7.028;2022-12-18T03:12:20;3.43;;;2.87;;
912;SDS011;443;51.448;7.028;2022-12-18T03:14:50;5.77;;;4.03;;
912;SDS011;443;51.448;7.028;2022-12-18T03:17:23;4.60;;;3.40;;
912;SDS011;443;51.448;7.028;2022-12-18T03:19:53;4.27;;;3.03;;
912;SDS011;443;51.448;7.028;2022-12-18T03:22:24;5.20;;;3.80;;
912;SDS011;443;51.448;7.028;2022-12-18T03:24:56;4.60;;;3.13;;
912;SDS011;443;51.448;7.028;2022-12-18T03:27:25;3.17;;;2.85;;
912;SDS011;443;51.448;7.028;2022-12-18T03:29:56;4.87;;;3.90;;
912;SDS011;443;51.448;7.028;2022-12-18T03:32:32;3.10;;;2.80;;
912;SDS011;443;51.448;7.028;2022-12-18T03:35:04;4.85;;;3.35;;
912;SDS011;443;51.448;7.028;2022-12-18T03:37:32;4.57;;;3.00;;
912;SDS011;443;51.448;7.028;2022-12-18T03:39:59;5.30;;;3.40;;
912;SDS011;443;51.448;7.028;2022-12-18T03:42:28;4.97;;;3.27;;
912;SDS011;443;51.448;7.028;2022-12-18T03:45:01;5.03;;;3.43;;
912;SDS011;443;51.448;7.028;2022-12-18T03:47:34;4.30;;;3.37;;
912;SDS011;443;51.448;7.028;2022-12-18T03:50:07;3.10;;;2.70;;
912;SDS011;443;51.448;7.028;2022-12-18T03:52:41;3.80;;;3.40;;
912;SDS011;443;51.448;7.028;2022-12-18T03:55:12;6.20;;;3.73;;
912;SDS011;443;51.448;7.028;2022-12-18T03:57:40;4.53;;;3.37;;
912;SDS011;443;51.448;7.028;2022-12-18T04:00:10;4.07;;;3.30;;
912;SDS011;443;51.448;7.028;2022-12-18T04:02:41;3.40;;;2.50;;
912;SDS011;443;51.448;7.028;2022-12-18T04:05:11;4.03;;;2.70;;
912;SDS011;443;51.448;7.028;2022-12-18T04:07:39;4.60;;;3.07;;
912;SDS011;443;51.448;7.028;2022-12-18T04:10:07;5.00;;;3.20;;
912;SDS011;443;51.448;7.028;2022-12-18T04:12:40;7.70;;;3.80;;
912;SDS011;443;51.448;7.028;2022-12-18T04:15:08;5.93;;;3.17;;
912;SDS011;443;51.448;7.028;2022-12-18T04:17:36;3.07;;;2.77;;
912;SDS011;443;51.448;7.028;2022-12-18T04:20:04;3.53;;;3.10;;
912;SDS011;443;51.448;7.028;2022-12-18T04:22:31;6.30;;;3.63;;
912;SDS011;443;51.448;7.028;2022-12-18T04:24:58;5.77;;;4.10;;
912;SDS011;443;51.448;7.028;2022-12-18T04:27:25;4.97;;;3.03;;
912;SDS011;443;51.448;7.028;2022-12-18T04:29:53;5.20;;;3.77;;
912;SDS011;443;51.448;7.028;2022-12-18T04:32:20;4.45;;;3.17;;
912;SDS011;443;51.448;7.028;2022-12-18T04:34:46;7.37;;;3.40;;
912;SDS011;443;51.448;7.028;2022-12-18T04:37:13;6.60;;;4.53;;
912;SDS011;443;51.448;7.028;2022-12-18T04:39:40;5.93;;;3.57;;
912;SDS011;443;51.448;7.028;2022-12-18T04:42:07;4.90;;;2.93;;
912;SDS011;443;51.448;7.028;2022-12-18T04:44:33;5.50;;;3.40;;
912;SDS011;443;51.448;7.028;2022-12-18T04:47:01;4.47;;;3.40;;
912;SDS011;443;51.448;7.028;2022-12-18T04:49:28;5.90;;;3.57;;
912;SDS011;443;51.448;7.028;2022-12-18T04:51:55;6.00;;;3.70;;
912;SDS011;443;51.448;7.028;2022-12-18T04:54:22;4.70;;;3.60;;
912;SDS011;443;51.448;7.028;2022-12-18T04:56:48;4.17;;;3.00;;
912;SDS011;443;51.448;7.028;2022-12-18T04:59:15;4.80;;;3.37;;
912;SDS011;443;51.448;7.028;2022-12-18T05:01:42;4.20;;;2.80;;
912;SDS011;443;51.448;7.028;2022-12-18T05:04:10;6.13;;;3.47;;
912;SDS011;443;51.448;7.028;2022-12-18T05:06:37;3.43;;;2.70;;
912;SDS011;443;51.448;7.028;2022-12-18T05:09:03;4.80;;;3.10;;
912;SDS011;443;51.448;7.028;2022-12-18T05:11:30;4.80;;;3.70;;
912;SDS011;443;51.448;7.028;2022-12-18T05:13:57;4.63;;;3.20;;
912;SDS011;443;51.448;7.028;2022-12-18T05:16:24;3.90;;;3.03;;
912;SDS011;443;51.448;7.028;2022-12-18T05:18:50;4.20;;;3.10;;
912;SDS011;443;51.448;7.028;2022-12-18T05:21:18;6.90;;;2.33;;
912;SDS011;443;51.448;7.028;2022-12-18T05:23:45;4.30;;;2.73;;
912;SDS011;443;51.448;7.028;2022-12-18T05:26:14;3.30;;;2.50;;
912;SDS011;443;51.448;7.028;2022-12-18T05:28:45;3.83;;;2.47;;
912;SDS011;443;51.448;7.028;2022-12-18T05:31:12;5.50;;;3.00;;
912;SDS011;443;51.448;7.028;2022-12-18T05:33:39;2.37;;;2.17;;
912;SDS011;443;51.448;7.028;2022-12-18T05:36:06;3.63;;;2.40;;
912;SDS011;443;51.448;7.028;2022-12-18T05:38:36;4.40;;;2.33;;
912;SDS011;443;51.448;7.028;2022-12-18T05:41:04;3.10;;;2.70;;
912;SDS011;443;51.448;7.028;2022-12-18T05:43:31;4.93;;;3.03;;
912;SDS011;443;51.448;7.028;2022-12-18T05:46:02;4.63;;;3.00;;
912;SDS011;443;51.448;7.028;2022-12-18T05:48:30;4.43;;;2.40;;
912;SDS011;443;51.448;7.028;2022-12-18T05:51:02;3.30;;;2.53;;
912;SDS011;443;51.448;7.028;2022-12-18T05:53:30;3.03;;;2.20;;
912;SDS011;443;51.448;7.028;2022-12-18T05:56:00;3.37;;;2.60;;
912;SDS011;443;51.448;7.028;2022-12-18T05:58:27;3.50;;;2.35;;
912;SDS011;443;51.448;7.028;2022-12-18T06:00:54;4.80;;;2.73;;
912;SDS011;443;51.448;7.028;2022-12-18T06:03:21;3.30;;;2.50;;
912;SDS011;443;51.448;7.028;2022-12-18T06:05:48;4.30;;;1.80;;
912;SDS011;443;51.448;7.028;2022-12-18T06:08:14;3.10;;;1.90;;
912;SDS011;443;51.448;7.028;2022-12-18T06:10:41;3.00;;;2.40;;
912;SDS011;443;51.448;7.028;2022-12-18T06:13:09;3.40;;;2.53;;
912;SDS011;443;51.448;7.028;2022-12-18T06:15:36;5.30;;;2.27;;
912;SDS011;443;51.448;7.028;2022-12-18T06:18:04;4.50;;;2.50;;
912;SDS011;443;51.448;7.028;2022-12-18T06:20:31;3.00;;;2.40;;
912;SDS011;443;51.448;7.028;2022-12-18T06:22:57;2.57;;;2.27;;
912;SDS011;443;51.448;7.028;2022-12-18T06:25:24;2.60;;;1.83;;
912;SDS011;443;51.448;7.028;2022-12-18T06:27:51;3.57;;;3.27;;
912;SDS011;443;51.448;7.028;2022-12-18T06:30:19;2.80;;;2.40;;
912;SDS011;443;51.448;7.028;2022-12-18T06:32:47;3.73;;;2.70;;
912;SDS011;443;51.448;7.028;2022-12-18T06:35:14;5.50;;;3.20;;
912;SDS011;443;51.448;7.028;2022-12-18T06:37:41;3.40;;;1.93;;
912;SDS011;443;51.448;7.028;2022-12-18T06:40:08;5.20;;;3.07;;
912;SDS011;443;51.448;7.028;2022-12-18T06:42:35;28.30;;;14.50;;
912;SDS011;443;51.448;7.028;2022-12-18T06:45:01;4.78;;;2.75;;
912;SDS011;443;51.448;7.028;2022-12-18T06:47:30;2.58;;;2.33;;
912;SDS011;443;51.448;7.028;2022-12-18T06:49:57;3.80;;;2.43;;
912;SDS011;443;51.448;7.028;2022-12-18T06:52:23;4.60;;;3.10;;
912;SDS011;443;51.448;7.028;2022-12-18T06:54:50;3.57;;;2.60;;
912;SDS011;443;51.448;7.028;2022-12-18T06:57:17;2.67;;;1.73;;
912;SDS011;443;51.448;7.028;2022-12-18T06:59:43;2.97;;;1.90;;
912;SDS011;443;51.448;7.028;2022-12-18T07:02:10;3.05;;;2.83;;
912;SDS011;443;51.448;7.028;2022-12-18T07:04:39;4.10;;;3.00;;
912;SDS011;443;51.448;7.028;2022-12-18T07:07:06;4.07;;;2.50;;
912;SDS011;443;51.448;7.028;2022-12-18T07:09:33;3.00;;;2.00;;
912;SDS011;443;51.448;7.028;2022-12-18T07:12:00;4.43;;;3.17;;
912;SDS011;443;51.448;7.028;2022-12-18T07:14:27;4.30;;;2.37;;
912;SDS011;443;51.448;7.028;2022-12-18T07:16:54;2.23;;;2.03;;
912;SDS011;443;51.448;7.028;2022-12-18T07:19:20;4.43;;;2.80;;
912;SDS011;443;51.448;7.028;2022-12-18T07:21:51;2.67;;;1.73;;
912;SDS011;443;51.448;7.028;2022-12-18T07:24:18;4.63;;;2.40;;
912;SDS011;443;51.448;7.028;2022-12-18T07:26:45;3.53;;;1.90;;
912;SDS011;443;51.448;7.028;2022-12-18T07:29:12;4.00;;;2.13;;
912;SDS011;443;51.448;7.028;2022-12-18T07:31:39;3.50;;;2.63;;
912;SDS011;443;51.448;7.028;2022-12-18T07:34:09;4.20;;;2.20;;
912;SDS011;443;51.448;7.028;2022-12-18T07:36:36;3.50;;;2.33;;
912;SDS011;443;51.448;7.028;2022-12-18T07:39:04;3.03;;;2.00;;
912;SDS011;443;51.448;7.028;2022-12-18T07:41:31;4.97;;;3.27;;
912;SDS011;443;51.448;7.028;2022-12-18T07:43:57;4.13;;;3.00;;
912;SDS011;443;51.448;7.028;2022-12-18T07:46:24;6.70;;;3.80;;
912;SDS011;443;51.448;7.028;2022-12-18T07:48:51;2.95;;;2.60;;
912;SDS011;443;51.448;7.028;2022-12-18T07:51:18;4.40;;;3.23;;
912;SDS011;443;51.448;7.028;2022-12-18T07:53:45;5.83;;;2.73;;
912;SDS011;443;51.448;7.028;2022-12-18T07:56:13;4.90;;;3.03;;
912;SDS011;443;51.448;7.028;2022-12-18T07:58:39;4.70;;;3.20;;
912;SDS011;443;51.448;7.028;2022-12-18T08:01:07;4.80;;;2.97;;
912;SDS011;443;51.448;7.028;2022-12-18T08:03:35;5.50;;;3.10;;
912;SDS011;443;51.448;7.028;2022-12-18T08:06:03;4.70;;;3.20;;
912;SDS011;443;51.448;7.028;2022-12-18T08:08:32;3.40;;;2.60;;
912;SDS011;443;51.448;7.028;2022-12-18T08:10:59;3.65;;;3.35;;
912;SDS011;443;51.448;7.028;2022-12-18T08:13:28;3.70;;;3.28;;
912;SDS011;443;51.448;7.028;2022-12-18T08:15:55;3.90;;;2.70;;
912;SDS011;443;51.448;7.028;2022-12-18T08:18:23;3.80;;;2.50;;
912;SDS011;443;51.448;7.028;2022-12-18T08:20:50;4.37;;;3.07;;
912;SDS011;443;51.448;7.028;2022-12-18T08:23:17;4.70;;;2.50;;
912;SDS011;443;51.448;7.028;2022-12-18T08:25:44;2.90;;;2.33;;
912;SDS011;443;51.448;7.028;2022-12-18T08:28:11;4.27;;;2.80;;
912;SDS011;443;51.448;7.028;2022-12-18T08:30:39;5.63;;;2.80;;
912;SDS011;443;51.448;7.028;2022-12-18T08:33:07;4.63;;;2.73;;
912;SDS011;443;51.448;7.028;2022-12-18T08:35:34;3.80;;;2.73;;
912;SDS011;443;51.448;7.028;2022-12-18T08:38:02;4.00;;;2.77;;
912;SDS011;443;51.448;7.028;2022-12-18T08:40:29;3.37;;;2.27;;
912;SDS011;443;51.448;7.028;2022-12-18T08:42:56;5.03;;;2.80;;
912;SDS011;443;51.448;7.028;2022-12-18T08:45:42;3.50;;;2.50;;
912;SDS011;443;51.448;7.028;2022-12-18T08:48:08;3.70;;;2.97;;
912;SDS011;443;51.448;7.028;2022-12-18T08:50:35;2.87;;;2.30;;
912;SDS011;443;51.448;7.028;2022-12-18T08:53:02;8.02;;;3.15;;
912;SDS011;443;51.448;7.028;2022-12-18T08:55:29;2.90;;;2.50;;
912;SDS011;443;51.448;7.028;2022-12-18T08:57:56;3.63;;;2.43;;
912;SDS011;443;51.448;7.028;2022-12-18T09:00:23;4.30;;;2.37;;
912;SDS011;443;51.448;7.028;2022-12-18T09:02:51;4.07;;;2.90;;
912;SDS011;443;51.448;7.028;2022-12-18T09:05:18;7.50;;;2.57;;
912;SDS011;443;51.448;7.028;2022-12-18T09:07:44;2.70;;;1.70;;
912;SDS011;443;51.448;7.028;2022-12-18T09:10:11;4.10;;;3.00;;
912;SDS011;443;51.448;7.028;2022-12-18T09:12:38;3.53;;;2.50;;
912;SDS011;443;51.448;7.028;2022-12-18T09:15:05;3.13;;;2.60;;
912;SDS011;443;51.448;7.028;2022-12-18T09:17:32;5.17;;;2.90;;
912;SDS011;443;51.448;7.028;2022-12-18T09:20:00;3.85;;;1.90;;
912;SDS011;443;51.448;7.028;2022-12-18T09:22:27;2.78;;;1.77;;
912;SDS011;443;51.448;7.028;2022-12-18T09:24:54;6.83;;;2.97;;
912;SDS011;443;51.448;7.028;2022-12-18T09:27:21;8.02;;;3.17;;
912;SDS011;443;51.448;7.028;2022-12-18T09:29:48;4.53;;;3.33;;
912;SDS011;443;51.448;7.028;2022-12-18T09:32:14;5.00;;;2.73;;
912;SDS011;443;51.448;7.028;2022-12-18T09:34:41;3.25;;;2.95;;
912;SDS011;443;51.448;7.028;2022-12-18T09:37:09;2.80;;;2.50;;
912;SDS011;443;51.448;7.028;2022-12-18T09:39:36;5.82;;;3.67;;
912;SDS011;443;51.448;7.028;2022-12-18T09:42:04;6.20;;;2.73;;
912;SDS011;443;51.448;7.028;2022-12-18T09:44:32;6.90;;;3.30;;
912;SDS011;443;51.448;7.028;2022-12-18T09:47:04;3.50;;;3.13;;
912;SDS011;443;51.448;7.028;2022-12-18T09:49:36;3.22;;;2.42;;
912;SDS011;443;51.448;7.028;2022-12-18T09:52:11;3.57;;;1.83;;
912;SDS011;443;51.448;7.028;2022-12-18T09:54:42;3.53;;;2.33;;
912;SDS011;443;51.448;7.028;2022-12-18T09:57:12;5.80;;;2.60;;
912;SDS011;443;51.448;7.028;2022-12-18T09:59:41;2.87;;;2.47;;
912;SDS011;443;51.448;7.028;2022-12-18T10:02:16;2.30;;;2.00;;
912;SDS011;443;51.448;7.028;2022-12-18T10:04:47;7.27;;;2.63;;
912;SDS011;443;51.448;7.028;2022-12-18T10:07:22;3.70;;;1.70;;
912;SDS011;443;51.448;7.028;2022-12-18T10:09:53;3.20;;;2.30;;
912;SDS011;443;51.448;7.028;2022-12-18T10:12:28;2.87;;;2.00;;
912;SDS011;443;51.448;7.028;2022-12-18T10:15:05;3.20;;;2.23;;
912;SDS011;443;51.448;7.028;2022-12-18T10:17:41;4.80;;;2.57;;
912;SDS011;443;51.448;7.028;2022-12-18T10:20:12;2.97;;;2.23;;
912;SDS011;443;51.448;7.028;2022-12-18T10:22:46;2.80;;;1.97;;
912;SDS011;443;51.448;7.028;2022-12-18T10:25:21;3.40;;;2.33;;
912;SDS011;443;51.448;7.028;2022-12-18T10:27:51;3.90;;;2.50;;
912;SDS011;443;51.448;7.028;2022-12-18T10:30:21;3.40;;;2.37;;
912;SDS011;443;51.448;7.028;2022-12-18T10:32:49;6.27;;;2.90;;
912;SDS011;443;51.448;7.028;2022-12-18T10:35:17;3.17;;;2.20;;
912;SDS011;443;51.448;7.028;2022-12-18T10:38:04;2.87;;;2.00;;
912;SDS011;443;51.448;7.028;2022-12-18T10:40:33;3.50;;;1.87;;
912;SDS011;443;51.448;7.028;2022-12-18T10:43:15;3.97;;;2.67;;
912;SDS011;443;51.448;7.028;2022-12-18T10:45:57;5.37;;;2.43;;
912;SDS011;443;51.448;7.028;2022-12-18T10:48:26;3.67;;;2.60;;
912;SDS011;443;51.448;7.028;2022-12-18T10:50:53;2.73;;;2.07;;
912;SDS011;443;51.448;7.028;2022-12-18T10:53:23;2.80;;;2.20;;
912;SDS011;443;51.448;7.028;2022-12-18T10:55:52;4.40;;;2.67;;
912;SDS011;443;51.448;7.028;2022-12-18T10:58:22;5.03;;;2.27;;
912;SDS011;443;51.448;7.028;2022-12-18T11:01:02;3.22;;;2.10;;
912;SDS011;443;51.448;7.028;2022-12-18T11:03:35;3.70;;;2.27;;
912;SDS011;443;51.448;7.028;2022-12-18T11:06:05;5.70;;;3.92;;
912;SDS011;443;51.448;7.028;2022-12-18T11:08:34;4.47;;;2.30;;
912;SDS011;443;51.448;7.028;2022-12-18T11:11:01;3.67;;;2.13;;
912;SDS011;443;51.448;7.028;2022-12-18T11:13:30;3.97;;;2.63;;
912;SDS011;443;51.448;7.028;2022-12-18T11:15:58;3.80;;;2.30;;
912;SDS011;443;51.448;7.028;2022-12-18T11:18:26;4.37;;;2.77;;
912;SDS011;443;51.448;7.028;2022-12-18T11:20:55;3.73;;;2.00;;
912;SDS011;443;51.448;7.028;2022-12-18T11:23:23;4.63;;;2.40;;
912;SDS011;443;51.448;7.028;2022-12-18T11:25:54;4.23;;;2.63;;
912;SDS011;443;51.448;7.028;2022-12-18T11:28:26;6.23;;;2.33;;
912;SDS011;443;51.448;7.028;2022-12-18T11:33:57;8.77;;;2.60;;
912;SDS011;443;51.448;7.028;2022-12-18T11:36:28;4.17;;;2.40;;
912;SDS011;443;51.448;7.028;2022-12-18T11:38:59;4.37;;;3.77;;
912;SDS011;443;51.448;7.028;2022-12-18T11:41:34;4.28;;;2.80;;
912;SDS011;443;51.448;7.028;2022-12-18T11:44:26;5.93;;;3.43;;
912;SDS011;443;51.448;7.028;2022-12-18T11:46:56;6.20;;;2.50;;
912;SDS011;443;51.448;7.028;2022-12-18T11:49:27;5.43;;;3.03;;
912;SDS011;443;51.448;7.028;2022-12-18T11:52:00;5.60;;;2.97;;
912;SDS011;443;51.448;7.028;2022-12-18T11:54:33;4.13;;;2.73;;
912;SDS011;443;51.448;7.028;2022-12-18T11:57:03;5.07;;;2.90;;
912;SDS011;443;51.448;7.028;2022-12-18T11:59:37;2.60;;;1.50;;
912;SDS011;443;51.448;7.028;2022-12-18T12:02:17;2.50;;;1.75;;
912;SDS011;443;51.448;7.028;2022-12-18T12:05:00;9.13;;;2.83;;
912;SDS011;443;51.448;7.028;2022-12-18T12:07:39;3.57;;;2.87;;
912;SDS011;443;51.448;7.028;2022-12-18T12:10:16;5.07;;;3.00;;
912;SDS011;443;51.448;7.028;2022-12-18T12:12:57;9.50;;;3.83;;
912;SDS011;443;51.448;7.028;2022-12-18T12:15:36;3.05;;;1.83;;
912;SDS011;443;51.448;7.028;2022-12-18T12:18:14;4.73;;;3.00;;
912;SDS011;443;51.448;7.028;2022-12-18T12:20:49;6.90;;;3.10;;
912;SDS011;443;51.448;7.028;2022-12-18T12:23:25;7.20;;;4.13;;
912;SDS011;443;51.448;7.028;2022-12-18T12:26:01;4.73;;;3.43;;
912;SDS011;443;51.448;7.028;2022-12-18T12:28:40;11.70;;;4.10;;
912;SDS011;443;51.448;7.028;2022-12-18T12:31:25;3.20;;;2.55;;
912;SDS011;443;51.448;7.028;2022-12-18T12:34:07;5.53;;;3.40;;
912;SDS011;443;51.448;7.028;2022-12-18T12:36:49;6.75;;;3.17;;
912;SDS011;443;51.448;7.028;2022-12-18T12:39:26;12.03;;;3.37;;
912;SDS011;443;51.448;7.028;2022-12-18T12:41:59;3.10;;;2.77;;
912;SDS011;443;51.448;7.028;2022-12-18T12:44:47;7.20;;;3.37;;
912;SDS011;443;51.448;7.028;2022-12-18T12:47:20;6.27;;;3.10;;
912;SDS011;443;51.448;7.028;2022-12-18T12:49:51;5.50;;;2.20;;
912;SDS011;443;51.448;7.028;2022-12-18T12:52:21;7.30;;;4.03;;
912;SDS011;443;51.448;7.028;2022-12-18T12:54:54;4.37;;;3.07;;
912;SDS011;443;51.448;7.028;2022-12-18T12:57:23;4.57;;;3.50;;
912;SDS011;443;51.448;7.028;2022-12-18T12:59:57;5.07;;;3.30;;
912;SDS011;443;51.448;7.028;2022-12-18T13:02:30;6.83;;;3.80;;
912;SDS011;443;51.448;7.028;2022-12-18T13:05:03;7.40;;;3.53;;
912;SDS011;443;51.448;7.028;2022-12-18T13:07:39;6.90;;;3.60;;
912;SDS011;443;51.448;7.028;2022-12-18T13:10:22;5.53;;;4.07;;
912;SDS011;443;51.448;7.028;2022-12-18T13:12:53;5.03;;;3.00;;
912;SDS011;443;51.448;7.028;2022-12-18T13:15:25;5.43;;;3.73;;
912;SDS011;443;51.448;7.028;2022-12-18T13:18:15;6.47;;;3.70;;
912;SDS011;443;51.448;7.028;2022-12-18T13:20:44;7.63;;;4.30;;
912;SDS011;443;51.448;7.028;2022-12-18T13:23:19;5.27;;;3.33;;
912;SDS011;443;51.448;7.028;2022-12-18T13:25:57;8.27;;;4.20;;
912;SDS011;443;51.448;7.028;2022-12-18T13:28:49;6.05;;;4.38;;
912;SDS011;443;51.448;7.028;2022-12-18T13:34:36;6.23;;;3.83;;
912;SDS011;443;51.448;7.028;2022-12-18T13:43:34;6.40;;;4.40;;
912;SDS011;443;51.448;7.028;2022-12-18T13:46:06;6.63;;;4.47;;
912;SDS011;443;51.448;7.028;2022-12-18T13:48:49;7.27;;;3.30;;
912;SDS011;443;51.448;7.028;2022-12-18T13:51:29;6.25;;;5.22;;
912;SDS011;443;51.448;7.028;2022-12-18T13:53:59;8.97;;;5.90;;
912;SDS011;443;51.448;7.028;2022-12-18T13:56:28;9.20;;;5.10;;
912;SDS011;443;51.448;7.028;2022-12-18T13:59:03;8.50;;;5.10;;
912;SDS011;443;51.448;7.028;2022-12-18T14:01:36;8.87;;;5.20;;
912;SDS011;443;51.448;7.028;2022-12-18T14:04:11;6.57;;;5.20;;
912;SDS011;443;51.448;7.028;2022-12-18T14:06:45;7.93;;;4.93;;
912;SDS011;443;51.448;7.028;2022-12-18T14:09:13;9.13;;;4.63;;
912;SDS011;443;51.448;7.028;2022-12-18T14:11:45;6.43;;;4.47;;
912;SDS011;443;51.448;7.028;2022-12-18T14:14:14;6.50;;;4.75;;
912;SDS011;443;51.448;7.028;2022-12-18T14:16:42;7.13;;;4.83;;
912;SDS011;443;51.448;7.028;2022-12-18T14:19:10;6.90;;;4.53;;
912;SDS011;443;51.448;7.028;2022-12-18T14:21:40;9.15;;;4.88;;
912;SDS011;443;51.448;7.028;2022-12-18T14:24:16;6.40;;;5.40;;
912;SDS011;443;51.448;7.028;2022-12-18T14:26:44;7.35;;;4.60;;
912;SDS011;443;51.448;7.028;2022-12-18T14:29:19;11.90;;;4.70;;
912;SDS011;443;51.448;7.028;2022-12-18T14:34:31;7.65;;;5.50;;
912;SDS011;443;51.448;7.028;2022-12-18T14:36:59;8.10;;;5.23;;
912;SDS011;443;51.448;7.028;2022-12-18T14:39:26;8.00;;;5.83;;
912;SDS011;443;51.448;7.028;2022-12-18T14:41:53;6.77;;;4.50;;
912;SDS011;443;51.448;7.028;2022-12-18T14:44:19;5.97;;;4.43;;
912;SDS011;443;51.448;7.028;2022-12-18T14:46:47;13.90;;;6.43;;
912;SDS011;443;51.448;7.028;2022-12-18T14:49:18;9.90;;;6.57;;
912;SDS011;443;51.448;7.028;2022-12-18T14:51:49;11.60;;;6.87;;
912;SDS011;443;51.448;7.028;2022-12-18T14:54:19;14.17;;;7.93;;
912;SDS011;443;51.448;7.028;2022-12-18T14:56:47;7.53;;;5.23;;
912;SDS011;443;51.448;7.028;2022-12-18T14:59:17;8.30;;;5.43;;
912;SDS011;443;51.448;7.028;2022-12-18T15:01:47;10.23;;;5.57;;
912;SDS011;443;51.448;7.028;2022-12-18T15:04:25;7.47;;;5.40;;
912;SDS011;443;51.448;7.028;2022-12-18T15:07:08;10.53;;;5.47;;
912;SDS011;443;51.448;7.028;2022-12-18T15:09:41;8.70;;;6.20;;
912;SDS011;443;51.448;7.028;2022-12-18T15:12:24;9.47;;;6.83;;
912;SDS011;443;51.448;7.028;2022-12-18T15:14:58;9.53;;;5.60;;
912;SDS011;443;51.448;7.028;2022-12-18T15:17:24;8.10;;;5.70;;
912;SDS011;443;51.448;7.028;2022-12-18T15:19:52;11.63;;;5.93;;
912;SDS011;443;51.448;7.028;2022-12-18T15:22:26;10.50;;;6.47;;
912;SDS011;443;51.448;7.028;2022-12-18T15:24:56;8.00;;;6.27;;
912;SDS011;443;51.448;7.028;2022-12-18T15:27:34;12.30;;;7.33;;
912;SDS011;443;51.448;7.028;2022-12-18T15:30:15;12.43;;;6.10;;
912;SDS011;443;51.448;7.028;2022-12-18T15:32:47;10.00;;;5.93;;
912;SDS011;443;51.448;7.028;2022-12-18T15:35:16;7.97;;;6.87;;
912;SDS011;443;51.448;7.028;2022-12-18T15:37:45;9.40;;;6.53;;
912;SDS011;443;51.448;7.028;2022-12-18T15:40:14;10.80;;;6.70;;
912;SDS011;443;51.448;7.028;2022-12-18T15:42:42;11.37;;;7.47;;
912;SDS011;443;51.448;7.028;2022-12-18T15:45:23;10.63;;;6.87;;
912;SDS011;443;51.448;7.028;2022-12-18T15:47:49;12.10;;;7.20;;
912;SDS011;443;51.448;7.028;2022-12-18T15:50:16;9.50;;;6.60;;
912;SDS011;443;51.448;7.028;2022-12-18T15:52:44;13.13;;;7.43;;
912;SDS011;443;51.448;7.028;2022-12-18T15:55:12;9.85;;;7.28;;
912;SDS011;443;51.448;7.028;2022-12-18T15:57:59;12.03;;;7.30;;
912;SDS011;443;51.448;7.028;2022-12-18T16:00:26;12.87;;;7.63;;
912;SDS011;443;51.448;7.028;2022-12-18T16:02:53;13.07;;;7.60;;
912;SDS011;443;51.448;7.028;2022-12-18T16:05:20;10.40;;;6.40;;
912;SDS011;443;51.448;7.028;2022-12-18T16:07:47;9.20;;;7.03;;
912;SDS011;443;51.448;7.028;2022-12-18T16:10:16;8.40;;;7.00;;
912;SDS011;443;51.448;7.028;2022-12-18T16:12:42;11.90;;;6.83;;
912;SDS011;443;51.448;7.028;2022-12-18T16:15:10;10.60;;;7.17;;
912;SDS011;443;51.448;7.028;2022-12-18T16:17:38;13.10;;;8.13;;
912;SDS011;443;51.448;7.028;2022-12-18T16:20:05;12.13;;;7.17;;